Prince George Airport
CYXS : now visible

Airfield :











YOU CAN JOIN US ON...

 
LOGIN :

Register | Disclaimer

   EN    FR    IT 

 









Legend :    VFR   Marginal VFR   IFR   Intensive IFR   Very Intensive IFR
Visi :
Ceiling :
>= 8 km
>= 3000ft
5 to 8 km
1000 to 3000 ft
1500m to 5 km
500 to 1000 ft
800 to 1500m
200 to 500 ft
< 800m
< 200 ft
Symbols :   Thunderstorms  Fog  Heavy snow  Heavy precipitations  Wind > 20 kt






- Airport Elevation : 2267 ft
- IATA code : YXS


CYXS - Prince George

CURRENT METAR :
  • 271603Z AUTO 02017G24KT 9SM -SN OVC046 M10/M14 A2959 RMK SLP071

EXPIRED METARs :
  • 271503Z AUTO 01015G21KT 9SM OVC055 M10/M14 A2961 RMK SLP072
  • 271421Z AUTO 36014G19KT 9SM -SN OVC046 M10/M14 A2959 RMK SLP068
  • 271400Z AUTO 01015KT 9SM OVC055 M10/M14 A2959 RMK SLP068
  • 271300Z AUTO 02015G21KT 9SM OVC065 M09/M13 A2961 RMK SLP072

TAF TAF CYXS
Valid from the 27 at 13:00 until the 28 at 01:00 UTC


271239Z 2713/2801 01012KT P6SM OVC060
TEMPO 2713/2801 6SM -SN OVC040 RMK FCST BASED ON AUTO OBS. NXT FCST BY 271900Z
CZVR FIR / North America



MET'MAP, your aeronautical weather chart ! - Copyright ORBIFLY December 2007 - Disclaimer

ORBIFLY MET'MAP TEAM :

Programming & Development : Alexandra Zaïnal
Concept & original design : Baudouin d'Aumeries
Assistance for programming : Marc-Olivier Méhu
Technical & hardware support : Manuel Goepfert

Contact : metmap@orbifly.com




SOURCES & CREDITS :

   NOAA       Earth
Advisory